Time;durP1;ratioP1;P1;durP2;ratioP2;P2;SDS_P1;SDS_P2;PMS_P1;PMS_P2;Temp;Humidity;BMP_temperature;BMP_pressure;BME280_temperature;BME280_humidity;BME280_pressure;Samples;Min_cycle;Max_cycle;Signal;HPM_P1;HPM_P2
2022/03/11 00:00:07;;;;;;;12.85;7.18;;;;;;;13.34;25.50;99894.34;343606;28;1127;-70
2022/03/11 00:00:20;;;;;;;12.80;7.20;;;;;;;13.36;25.48;99890.78;343575;28;1060;-69
2022/03/11 00:00:32;;;;;;;12.77;7.13;;;;;;;13.38;25.38;99899.41;342308;28;1084;-69
2022/03/11 00:00:45;;;;;;;11.80;7.20;;;;;;;13.38;25.24;99888.09;342104;28;1815;-69
2022/03/11 00:00:57;;;;;;;11.98;7.57;;;;;;;13.36;25.48;99887.31;342099;28;1100;-69
2022/03/11 00:01:09;;;;;;;13.43;7.80;;;;;;;13.35;25.74;99890.84;342646;28;1203;-69
2022/03/11 00:01:22;;;;;;;13.30;8.00;;;;;;;13.23;26.20;99896.53;341594;28;1993;-70
2022/03/11 00:01:34;;;;;;;12.13;7.55;;;;;;;13.28;26.46;99891.94;342174;28;1120;-70
2022/03/11 00:02:06;;;;;;;12.43;7.32;;;;;;;13.32;26.06;99899.66;340723;29;1381;-69
2022/03/11 00:02:22;;;;;;;12.55;7.53;;;;;;;13.28;26.37;99891.94;341914;28;1068;-69
2022/03/11 00:02:35;;;;;;;16.42;7.97;;;;;;;13.26;25.79;99891.16;343633;28;1027;-69
2022/03/11 00:02:48;;;;;;;16.02;7.78;;;;;;;13.30;26.00;99892.78;343518;28;1274;-69
2022/03/11 00:03:00;;;;;;;15.05;7.47;;;;;;;13.29;25.62;99885.84;343272;28;1508;-69
2022/03/11 00:03:13;;;;;;;12.48;7.43;;;;;;;13.24;26.08;99887.78;343741;28;1257;-69
2022/03/11 00:03:26;;;;;;;12.98;7.40;;;;;;;13.22;26.36;99889.59;344325;28;1626;-69
2022/03/11 00:03:38;;;;;;;12.32;7.25;;;;;;;13.21;26.41;99887.91;344584;28;1063;-69
2022/03/11 00:03:50;;;;;;;11.30;7.15;;;;;;;13.15;26.47;99887.22;344694;28;1256;-70
2022/03/11 00:04:02;;;;;;;11.15;7.40;;;;;;;13.15;26.43;99895.06;344765;28;1739;-70
2022/03/11 00:04:14;;;;;;;11.75;7.18;;;;;;;13.19;25.99;99888.81;344462;28;1582;-70
2022/03/11 00:04:27;;;;;;;11.50;6.65;;;;;;;13.23;25.90;99891.31;344938;28;1656;-70
2022/03/11 00:04:39;;;;;;;12.82;6.95;;;;;;;13.18;26.63;99884.50;344995;28;1569;-70
2022/03/11 00:04:51;;;;;;;13.00;7.13;;;;;;;13.18;26.58;99894.94;343525;28;2052;-69
2022/03/11 00:05:04;;;;;;;13.23;7.18;;;;;;;13.21;26.48;99890.53;344047;28;717;-69
2022/03/11 00:05:16;;;;;;;12.43;7.10;;;;;;;13.23;26.31;99886.09;343739;28;1314;-70
2022/03/11 00:05:31;;;;;;;12.40;7.05;;;;;;;13.23;26.34;99884.31;343287;28;1563;-70
2022/03/11 00:05:43;;;;;;;12.63;6.93;;;;;;;13.19;26.08;99888.81;343642;28;1079;-69
2022/03/11 00:05:55;;;;;;;12.18;7.03;;;;;;;13.22;26.14;99894.81;343570;28;1023;-69
2022/03/11 00:06:08;;;;;;;12.95;7.20;;;;;;;13.15;25.95;99889.00;343251;28;1829;-69
2022/03/11 00:06:19;;;;;;;13.45;7.25;;;;;;;13.14;25.82;99893.38;343960;28;1046;-69
2022/03/11 00:06:31;;;;;;;12.77;7.35;;;;;;;13.16;25.65;99888.94;342750;28;1034;-70
2022/03/11 00:06:43;;;;;;;12.20;7.40;;;;;;;13.14;25.99;99892.53;342104;28;2072;-69
2022/03/11 00:06:56;;;;;;;12.05;7.70;;;;;;;13.12;26.08;99892.59;343349;28;1998;-69
2022/03/11 00:07:08;;;;;;;11.50;7.22;;;;;;;13.13;26.03;99891.66;343531;28;1140;-70
2022/03/11 00:07:20;;;;;;;12.35;7.25;;;;;;;13.13;26.35;99890.81;343503;28;1035;-70
2022/03/11 00:07:32;;;;;;;12.13;7.43;;;;;;;13.14;26.24;99893.38;342328;28;1055;-69
2022/03/11 00:07:44;;;;;;;11.35;7.38;;;;;;;13.13;26.06;99891.66;342481;28;1495;-70
2022/03/11 00:07:56;;;;;;;10.60;7.10;;;;;;;13.12;26.21;99895.19;343639;28;1281;-70
2022/03/11 00:08:08;;;;;;;11.90;7.38;;;;;;;13.13;26.15;99886.44;343788;28;1053;-70
2022/03/11 00:08:20;;;;;;;12.70;7.75;;;;;;;13.08;26.36;99893.63;343575;28;1428;-70
2022/03/11 00:08:32;;;;;;;12.13;7.75;;;;;;;13.03;26.44;99889.47;343788;28;1099;-70
2022/03/11 00:08:44;;;;;;;13.25;7.60;;;;;;;13.01;26.24;99892.13;343241;28;2089;-69
2022/03/11 00:08:56;;;;;;;12.68;7.20;;;;;;;12.97;26.41;99886.19;342502;28;1083;-69
2022/03/11 00:09:08;;;;;;;12.02;7.10;;;;;;;12.84;26.51;99890.19;342554;28;1091;-69
2022/03/11 00:09:20;;;;;;;11.52;7.03;;;;;;;12.89;26.02;99885.63;342540;28;1518;-69
2022/03/11 00:09:32;;;;;;;11.35;7.00;;;;;;;12.90;26.25;99891.72;343687;28;1095;-69
2022/03/11 00:09:44;;;;;;;12.80;7.53;;;;;;;12.89;26.31;99892.63;343753;28;1746;-69
2022/03/11 00:09:57;;;;;;;12.15;7.43;;;;;;;12.79;26.33;99889.50;341841;28;1718;-69
2022/03/11 00:10:09;;;;;;;10.82;7.05;;;;;;;12.84;25.89;99884.09;342782;28;1011;-70
2022/03/11 00:10:21;;;;;;;11.60;7.25;;;;;;;12.83;26.25;99892.84;343813;28;1618;-70
2022/03/11 00:10:33;;;;;;;12.82;7.72;;;;;;;12.76;26.27;99887.88;344115;28;1876;-69
2022/03/11 00:10:48;;;;;;;12.60;7.80;;;;;;;12.82;26.16;99880.69;345094;28;1030;-69
2022/03/11 00:11:00;;;;;;;12.23;7.70;;;;;;;12.86;26.27;99885.75;345020;28;1792;-69
2022/03/11 00:11:12;;;;;;;12.88;7.65;;;;;;;12.72;26.48;99880.22;343686;28;1055;-70
2022/03/11 00:11:24;;;;;;;12.38;7.32;;;;;;;12.78;26.49;99886.03;343879;28;1662;-70
2022/03/11 00:11:37;;;;;;;11.07;6.90;;;;;;;12.77;26.03;99883.50;344886;28;1273;-70
2022/03/11 00:11:49;;;;;;;10.73;6.78;;;;;;;12.83;25.95;99883.25;344437;28;1770;-70
2022/03/11 00:12:01;;;;;;;11.75;7.15;;;;;;;12.87;25.82;99894.44;343647;28;1277;-70
2022/03/11 00:12:13;;;;;;;13.18;7.80;;;;;;;12.86;26.13;99892.72;343410;28;1022;-70
2022/03/11 00:12:25;;;;;;;13.60;8.00;;;;;;;12.76;25.90;99889.63;343388;28;1559;-70
2022/03/11 00:12:37;;;;;;;12.77;7.43;;;;;;;12.70;26.10;99888.09;343694;28;1350;-70
2022/03/11 00:12:49;;;;;;;11.93;7.05;;;;;;;12.58;25.97;99884.19;343697;28;1258;-70
2022/03/11 00:13:01;;;;;;;11.55;7.00;;;;;;;12.52;26.61;99892.25;343849;28;1232;-70
2022/03/11 00:13:14;;;;;;;11.65;6.70;;;;;;;12.63;25.95;99889.22;343852;28;1319;-69
2022/03/11 00:13:26;;;;;;;11.57;6.68;;;;;;;12.73;25.94;99877.53;343611;28;1895;-69
2022/03/11 00:13:38;;;;;;;10.82;7.03;;;;;;;12.72;26.07;99881.06;342383;28;1616;-69
2022/03/11 00:13:50;;;;;;;11.52;7.38;;;;;;;12.72;26.10;99886.28;343519;28;1083;-69
2022/03/11 00:14:02;;;;;;;12.07;7.40;;;;;;;12.68;25.74;99887.31;343616;28;1102;-69
2022/03/11 00:14:15;;;;;;;11.90;7.40;;;;;;;12.66;26.43;99889.13;344016;28;1108;-70
2022/03/11 00:14:27;;;;;;;12.07;7.60;;;;;;;12.64;26.33;99883.13;344272;28;1570;-70
2022/03/11 00:14:39;;;;;;;12.27;7.85;;;;;;;12.59;26.48;99891.09;344634;28;1914;-69
2022/03/11 00:14:51;;;;;;;12.25;7.68;;;;;;;12.64;25.99;99887.50;343417;28;1210;-70
2022/03/11 00:15:07;;;;;;;12.05;7.47;;;;;;;12.69;26.11;99883.78;343559;28;1292;-70
2022/03/11 00:15:19;;;;;;;13.25;7.75;;;;;;;12.76;26.25;99882.66;343590;28;1081;-70
2022/03/11 00:15:31;;;;;;;13.57;8.05;;;;;;;12.76;26.18;99881.81;343416;28;1037;-70
2022/03/11 00:15:43;;;;;;;12.55;7.78;;;;;;;12.75;25.89;99883.53;343658;28;1728;-70
2022/03/11 00:15:56;;;;;;;12.30;7.32;;;;;;;12.69;26.36;99885.53;343581;28;1668;-70
2022/03/11 00:16:08;;;;;;;13.85;7.70;;;;;;;12.63;26.22;99884.00;343141;28;1621;-69
2022/03/11 00:16:20;;;;;;;15.88;8.02;;;;;;;12.65;26.12;99886.56;343557;28;1315;-69
2022/03/11 00:16:34;;;;;;;15.23;7.63;;;;;;;12.52;26.11;99888.78;343684;28;1322;-69
2022/03/11 00:16:47;;;;;;;12.63;7.28;;;;;;;12.47;26.04;99881.13;343578;28;1179;-70
2022/03/11 00:16:59;;;;;;;11.77;7.30;;;;;;;12.53;26.25;99887.88;343713;28;1073;-70
2022/03/11 00:17:11;;;;;;;11.98;7.22;;;;;;;12.56;26.23;99890.38;343843;28;1098;-70
2022/03/11 00:17:23;;;;;;;12.70;7.35;;;;;;;12.61;26.09;99892.81;343323;28;1565;-70
2022/03/11 00:17:36;;;;;;;13.23;7.50;;;;;;;12.59;26.50;99885.03;343450;28;1519;-70
2022/03/11 00:17:48;;;;;;;12.60;7.53;;;;;;;12.56;26.15;99887.78;343622;28;1094;-70
2022/03/11 00:18:00;;;;;;;13.68;7.63;;;;;;;12.52;26.70;99883.56;342938;28;2025;-70
2022/03/11 00:18:13;;;;;;;13.93;7.45;;;;;;;12.38;26.43;99877.09;342420;28;1168;-69
2022/03/11 00:18:25;;;;;;;12.80;7.22;;;;;;;12.30;26.53;99884.34;342840;28;1266;-69
2022/03/11 00:18:37;;;;;;;12.50;7.28;;;;;;;12.32;26.59;99879.09;343418;28;1007;-69
2022/03/11 00:18:50;;;;;;;13.77;7.63;;;;;;;12.31;26.64;99880.81;343351;28;1280;-70
2022/03/11 00:19:02;;;;;;;14.30;7.63;;;;;;;12.31;26.62;99880.81;343396;28;1279;-70
2022/03/11 00:19:18;;;;;;;13.27;7.50;;;;;;;12.26;26.64;99881.91;343356;28;1104;-69
2022/03/11 00:19:30;;;;;;;11.98;7.50;;;;;;;12.18;26.75;99879.56;344503;28;1150;-69
2022/03/11 00:19:42;;;;;;;11.93;7.47;;;;;;;12.15;26.99;99879.66;344359;28;1842;-70
2022/03/11 00:19:54;;;;;;;11.82;7.47;;;;;;;12.15;26.66;99874.47;344810;28;1977;-69
2022/03/11 00:20:06;;;;;;;12.10;7.47;;;;;;;12.15;26.88;99883.16;344876;28;1231;-69
2022/03/11 00:20:20;;;;;;;12.00;7.35;;;;;;;12.25;26.53;99883.66;343956;28;1253;-69
2022/03/11 00:20:32;;;;;;;13.40;7.32;;;;;;;12.21;26.87;99884.66;343787;28;1035;-69
2022/03/11 00:20:44;;;;;;;13.82;7.35;;;;;;;12.25;26.84;99883.66;343638;28;1415;-69
2022/03/11 00:20:56;;;;;;;13.00;7.07;;;;;;;12.20;26.63;99877.75;342418;28;1061;-70
2022/03/11 00:21:12;;;;;;;12.82;7.32;;;;;;;12.12;26.54;99875.44;342597;28;1035;-70
2022/03/11 00:21:25;;;;;;;12.20;7.38;;;;;;;12.10;27.04;99881.59;342471;28;1081;-69
2022/03/11 00:21:37;;;;;;;12.52;7.47;;;;;;;12.21;26.65;99881.22;343532;28;1098;-70
2022/03/11 00:21:49;;;;;;;12.13;7.50;;;;;;;12.28;26.64;99880.09;343634;28;1171;-70
2022/03/11 00:22:01;;;;;;;11.75;7.22;;;;;;;12.33;26.54;99881.63;343535;28;1034;-70
2022/03/11 00:22:14;;;;;;;11.85;7.43;;;;;;;12.30;26.80;99883.50;343434;28;1070;-70
2022/03/11 00:22:28;;;;;;;12.02;7.65;;;;;;;12.20;26.93;99880.38;343898;28;1865;-70
2022/03/11 00:22:40;;;;;;;11.70;7.63;;;;;;;12.24;26.94;99883.72;344795;28;1139;-70
2022/03/11 00:22:53;;;;;;;12.75;7.35;;;;;;;12.28;26.87;99880.94;344859;28;1114;-70
2022/03/11 00:23:05;;;;;;;14.02;7.53;;;;;;;12.27;26.48;99883.59;344813;28;2393;-70
2022/03/11 00:23:17;;;;;;;14.10;7.40;;;;;;;12.18;26.65;99879.56;344849;28;1676;-70
2022/03/11 00:23:29;;;;;;;13.02;7.30;;;;;;;12.22;26.68;99881.16;344700;28;1857;-69
2022/03/11 00:23:42;;;;;;;11.48;7.45;;;;;;;12.30;26.48;99876.53;343740;28;1117;-69
2022/03/11 00:23:54;;;;;;;12.32;7.88;;;;;;;12.35;26.69;99882.44;343631;28;1109;-69
2022/03/11 00:24:06;;;;;;;12.80;7.85;;;;;;;12.34;26.93;99874.66;343791;28;1686;-69
2022/03/11 00:24:18;;;;;;;12.90;7.72;;;;;;;12.30;27.06;99883.50;343744;28;1539;-69
2022/03/11 00:24:30;;;;;;;12.68;7.63;;;;;;;12.24;27.04;99881.97;343749;28;1711;-69
2022/03/11 00:24:42;;;;;;;12.27;7.32;;;;;;;12.28;26.69;99882.72;343793;28;1049;-70
2022/03/11 00:24:55;;;;;;;12.93;7.40;;;;;;;12.26;26.75;99877.53;343715;28;1115;-70
2022/03/11 00:25:09;;;;;;;12.90;7.75;;;;;;;12.21;26.80;99884.66;343493;28;1937;-70
2022/03/11 00:25:21;;;;;;;13.36;7.78;;;;;;;12.28;26.62;99880.94;343996;28;1971;-70
2022/03/11 00:25:34;;;;;;;13.60;7.32;;;;;;;12.33;26.78;99888.59;344772;28;1288;-70
2022/03/11 00:25:45;;;;;;;14.00;7.22;;;;;;;12.34;26.54;99882.47;343529;28;1803;-70
2022/03/11 00:25:58;;;;;;;13.43;7.10;;;;;;;12.32;26.54;99879.09;343720;28;1079;-70
2022/03/11 00:26:10;;;;;;;12.00;7.15;;;;;;;12.32;26.84;99886.91;343663;28;1046;-69
2022/03/11 00:26:22;;;;;;;11.43;7.07;;;;;;;12.35;26.77;99885.03;343351;28;1606;-69
2022/03/11 00:26:34;;;;;;;12.27;7.40;;;;;;;12.34;26.75;99880.72;343600;28;1102;-69
2022/03/11 00:26:46;;;;;;;13.10;7.57;;;;;;;12.37;26.56;99880.63;343712;28;1712;-69
2022/03/11 00:26:58;;;;;;;12.75;7.55;;;;;;;12.32;28.48;99884.28;343284;28;1567;-69
2022/03/11 00:27:10;;;;;;;11.70;7.72;;;;;;;12.37;26.84;99884.97;343517;28;1035;-69
2022/03/11 00:27:22;;;;;;;11.57;7.53;;;;;;;12.41;27.18;99885.72;343331;28;1721;-69
2022/03/11 00:27:34;;;;;;;11.57;7.20;;;;;;;12.46;26.57;99884.66;343551;28;1266;-69
2022/03/11 00:27:47;;;;;;;11.48;7.20;;;;;;;12.35;27.31;99876.34;343603;28;1054;-70
2022/03/11 00:28:02;;;;;;;11.80;7.53;;;;;;;12.39;26.73;99888.38;343400;28;1109;-70
2022/03/11 00:28:17;;;;;;;13.30;7.88;;;;;;;12.38;26.85;99877.09;342908;28;1996;-70
2022/03/11 00:28:29;;;;;;;12.18;7.50;;;;;;;12.31;26.81;99883.41;343347;28;1667;-69
2022/03/11 00:28:41;;;;;;;10.75;7.10;;;;;;;12.28;26.73;99886.16;343844;28;1059;-70
2022/03/11 00:28:53;;;;;;;11.98;7.57;;;;;;;12.27;26.88;99884.44;342800;28;2191;-69
2022/03/11 00:29:05;;;;;;;12.90;7.47;;;;;;;12.24;27.00;99884.56;343029;28;2620;-70
2022/03/11 00:29:17;;;;;;;12.25;7.32;;;;;;;12.25;26.58;99886.25;343826;28;959;-69
2022/03/11 00:29:29;;;;;;;11.93;7.53;;;;;;;12.28;26.83;99885.31;342618;28;2127;-70
2022/03/11 00:29:41;;;;;;;12.25;7.60;;;;;;;12.29;26.62;99879.19;342903;28;2052;-70
2022/03/11 00:29:53;;;;;;;11.82;7.32;;;;;;;12.32;26.46;99882.53;343880;28;1193;-70
2022/03/11 00:30:06;;;;;;;13.65;7.30;;;;;;;12.28;26.69;99882.72;343123;28;1627;-70
2022/03/11 00:30:18;;;;;;;13.40;7.15;;;;;;;12.32;26.46;99882.53;343102;28;1575;-70
2022/03/11 00:30:31;;;;;;;10.70;7.13;;;;;;;12.37;26.41;99884.97;343735;28;2126;-69
2022/03/11 00:30:43;;;;;;;10.40;6.90;;;;;;;12.36;26.81;99873.69;343851;28;1095;-69
2022/03/11 00:30:55;;;;;;;11.20;7.20;;;;;;;12.27;26.85;99884.44;343650;28;2109;-70
2022/03/11 00:31:07;;;;;;;11.90;7.57;;;;;;;12.07;27.24;99884.31;343667;28;1030;-70
2022/03/11 00:31:19;;;;;;;13.48;7.72;;;;;;;12.07;27.61;99881.69;342738;28;2432;-70
2022/03/11 00:31:31;;;;;;;13.57;7.57;;;;;;;12.03;27.38;99880.94;343341;28;1984;-70
2022/03/11 00:31:45;;;;;;;12.80;7.60;;;;;;;12.10;27.00;99886.81;343534;28;1468;-69
2022/03/11 00:31:57;;;;;;;13.85;7.63;;;;;;;12.02;26.94;99883.63;343810;28;2026;-69
2022/03/11 00:32:09;;;;;;;14.52;7.50;;;;;;;12.10;26.81;99881.59;342914;28;2450;-69
2022/03/11 00:32:21;;;;;;;14.48;7.63;;;;;;;12.17;27.15;99877.84;343505;28;1402;-69
2022/03/11 00:32:33;;;;;;;13.43;7.53;;;;;;;12.23;26.93;99884.63;343416;28;1083;-70
2022/03/11 00:32:46;;;;;;;12.85;7.50;;;;;;;12.31;26.68;99885.19;343595;28;1075;-70
2022/03/11 00:32:58;;;;;;;12.82;7.50;;;;;;;12.37;26.76;99888.44;343741;28;1151;-70
2022/03/11 00:33:10;;;;;;;12.98;7.50;;;;;;;12.41;27.15;99888.31;343760;28;1061;-70
2022/03/11 00:33:22;;;;;;;13.43;7.43;;;;;;;12.41;27.12;99880.50;343398;28;1813;-69
2022/03/11 00:33:34;;;;;;;13.77;7.55;;;;;;;12.29;27.63;99887.84;343262;28;1197;-70
2022/03/11 00:33:46;;;;;;;12.65;7.68;;;;;;;12.31;27.02;99886.03;342732;28;2068;-69
2022/03/11 00:34:01;;;;;;;13.02;7.78;;;;;;;12.32;27.50;99887.75;342784;28;1415;-69
2022/03/11 00:34:14;;;;;;;12.65;7.60;;;;;;;12.37;27.43;99892.78;343837;28;1030;-70
2022/03/11 00:34:26;;;;;;;11.23;7.47;;;;;;;12.35;27.18;99886.78;343758;28;1419;-70
2022/03/11 00:34:38;;;;;;;12.00;7.20;;;;;;;12.26;27.45;99881.91;344699;28;1141;-69
2022/03/11 00:34:50;;;;;;;13.25;7.05;;;;;;;12.32;27.21;99892.97;344946;28;1265;-70
2022/03/11 00:35:07;;;;;;;13.32;6.95;;;;;;;12.33;27.03;99889.44;344836;28;1053;-70
2022/03/11 00:35:20;;;;;;;11.38;7.28;;;;;;;12.37;26.93;99888.44;344627;28;1386;-69
2022/03/11 00:35:32;;;;;;;11.40;7.45;;;;;;;12.32;27.38;99886.91;344615;28;1051;-70
2022/03/11 00:35:44;;;;;;;12.88;7.70;;;;;;;12.32;27.04;99892.13;344850;28;1344;-70
2022/03/11 00:35:56;;;;;;;13.05;7.68;;;;;;;12.35;27.31;99892.88;344097;28;1836;-69
2022/03/11 00:36:09;;;;;;;12.77;7.90;;;;;;;12.37;27.19;99895.41;344572;28;2178;-69
2022/03/11 00:36:23;;;;;;;12.88;7.95;;;;;;;12.26;27.88;99892.34;344843;28;1251;-69
2022/03/11 00:36:37;;;;;;;12.10;7.53;;;;;;;12.31;27.37;99891.25;344371;28;2043;-69
2022/03/11 00:36:49;;;;;;;12.23;7.38;;;;;;;12.33;27.28;99894.66;343762;28;1242;-69
2022/03/11 00:37:01;;;;;;;14.07;7.70;;;;;;;12.29;27.46;99887.00;343720;28;1067;-69
2022/03/11 00:37:13;;;;;;;13.90;7.75;;;;;;;12.37;27.35;99893.66;343658;28;1418;-69
2022/03/11 00:37:25;;;;;;;14.48;8.02;;;;;;;12.41;27.21;99890.94;343567;28;1637;-69
2022/03/11 00:37:39;;;;;;;13.43;7.90;;;;;;;12.42;26.87;99892.63;343482;28;1954;-69
2022/03/11 00:37:51;;;;;;;13.68;7.80;;;;;;;12.37;27.59;99891.06;343891;28;1284;-69
2022/03/11 00:38:06;;;;;;;13.30;7.68;;;;;;;12.41;27.28;99891.78;343557;28;1046;-69
2022/03/11 00:38:18;;;;;;;17.23;7.53;;;;;;;12.24;27.95;99892.38;343517;28;1347;-70
2022/03/11 00:38:30;;;;;;;18.42;7.72;;;;;;;12.27;27.53;99894.88;342718;28;2015;-69
2022/03/11 00:38:48;;;;;;;14.50;7.75;;;;;;;12.28;27.63;99891.38;343569;28;2049;-69
2022/03/11 00:39:00;;;;;;;13.35;7.78;;;;;;;12.25;28.13;99891.47;343561;28;1203;-69
2022/03/11 00:39:12;;;;;;;12.70;7.63;;;;;;;12.29;27.77;99887.84;342899;28;2018;-69
2022/03/11 00:39:24;;;;;;;12.13;7.80;;;;;;;12.33;27.43;99893.81;342554;28;1797;-69
2022/03/11 00:39:36;;;;;;;11.38;7.50;;;;;;;12.37;27.40;99891.06;343374;28;1012;-69
2022/03/11 00:39:48;;;;;;;12.73;7.75;;;;;;;12.38;27.34;99891.91;343229;28;1555;-69
2022/03/11 00:40:00;;;;;;;12.75;7.60;;;;;;;12.35;27.93;99898.06;343570;28;1037;-69
2022/03/11 00:40:13;;;;;;;13.35;7.70;;;;;;;12.26;27.71;99890.56;343595;28;1553;-69
2022/03/11 00:40:25;;;;;;;13.40;7.45;;;;;;;12.30;27.38;99886.09;343000;28;2563;-69
2022/03/11 00:40:37;;;;;;;13.77;7.68;;;;;;;12.27;27.53;99889.66;343769;28;1704;-69
2022/03/11 00:40:51;;;;;;;12.60;7.80;;;;;;;12.28;27.35;99888.75;344041;28;1169;-70
2022/03/11 00:41:03;;;;;;;11.70;7.63;;;;;;;12.26;27.71;99892.34;343932;28;2071;-70
2022/03/11 00:41:16;;;;;;;11.68;7.40;;;;;;;12.16;27.90;99894.41;343774;28;1989;-71
2022/03/11 00:41:28;;;;;;;12.23;7.47;;;;;;;12.20;27.38;99888.19;343756;28;1306;-69
2022/03/11 00:41:41;;;;;;;13.30;7.63;;;;;;;12.24;27.46;99888.94;343741;28;914;-69
2022/03/11 00:41:53;;;;;;;12.57;7.78;;;;;;;12.23;27.50;99887.22;343144;28;2225;-69
2022/03/11 00:42:05;;;;;;;12.07;7.88;;;;;;;12.23;27.65;99882.84;343732;28;1086;-69
2022/03/11 00:42:17;;;;;;;11.68;7.90;;;;;;;12.29;27.00;99897.44;343882;28;1028;-69
2022/03/11 00:42:29;;;;;;;13.05;8.20;;;;;;;12.27;27.52;99894.03;342305;28;2375;-69
2022/03/11 00:42:42;;;;;;;14.20;8.30;;;;;;;12.29;27.37;99893.06;343798;28;1853;-70
2022/03/11 00:42:54;;;;;;;14.52;8.05;;;;;;;12.30;27.03;99889.56;343914;28;1294;-69
2022/03/11 00:43:08;;;;;;;14.25;8.07;;;;;;;12.34;27.18;99893.75;343781;28;1746;-69
2022/03/11 00:43:20;;;;;;;13.90;8.13;;;;;;;12.39;27.08;99893.56;343744;28;1042;-70
2022/03/11 00:43:32;;;;;;;12.95;7.82;;;;;;;12.42;26.94;99897.84;342402;28;1031;-69
2022/03/11 00:43:44;;;;;;;12.88;7.65;;;;;;;12.44;27.21;99898.66;341958;28;1179;-69
2022/03/11 00:43:57;;;;;;;12.35;7.10;;;;;;;12.45;27.35;99893.34;342233;28;1873;-69
2022/03/11 00:44:10;;;;;;;11.23;6.88;;;;;;;12.50;26.99;99890.59;342252;28;1307;-69
2022/03/11 00:44:22;;;;;;;11.68;7.15;;;;;;;12.50;26.79;99895.81;342253;28;1696;-69
2022/03/11 00:44:35;;;;;;;12.25;7.28;;;;;;;12.46;26.96;99889.00;342827;28;2038;-69
2022/03/11 00:44:52;;;;;;;12.68;7.47;;;;;;;12.45;27.78;99900.34;342352;28;1055;-69
2022/03/11 00:45:07;;;;;;;13.15;7.82;;;;;;;12.48;27.41;99893.25;342292;28;1121;-69
2022/03/11 00:45:19;;;;;;;12.77;8.00;;;;;;;12.54;27.27;99894.78;342100;28;1286;-70
2022/03/11 00:45:31;;;;;;;13.15;8.13;;;;;;;12.55;27.31;99889.50;342171;28;1348;-69
2022/03/11 00:45:44;;;;;;;13.85;7.93;;;;;;;12.59;26.88;99890.25;342113;28;1494;-70
2022/03/11 00:45:55;;;;;;;13.48;7.60;;;;;;;12.61;27.21;99891.03;342149;28;1063;-70
2022/03/11 00:46:08;;;;;;;13.05;7.82;;;;;;;12.60;27.00;99897.19;342241;28;1588;-69
2022/03/11 00:46:20;;;;;;;12.13;7.82;;;;;;;12.62;27.03;99895.34;343427;28;2058;-69
2022/03/11 00:46:32;;;;;;;12.82;8.18;;;;;;;12.63;26.72;99891.81;342510;28;1298;-69
2022/03/11 00:46:44;;;;;;;13.00;7.88;;;;;;;12.63;27.35;99891.81;342254;28;1148;-69
2022/03/11 00:46:56;;;;;;;13.15;7.50;;;;;;;12.52;26.98;99892.25;342481;28;1075;-70
2022/03/11 00:47:09;;;;;;;11.77;7.15;;;;;;;12.59;26.99;99898.06;342262;28;1049;-70
2022/03/11 00:47:21;;;;;;;12.63;7.35;;;;;;;12.58;27.05;99899.00;342395;28;1396;-69
2022/03/11 00:47:33;;;;;;;13.65;7.57;;;;;;;12.47;27.66;99894.16;343765;28;1023;-69
2022/03/11 00:47:45;;;;;;;14.40;8.02;;;;;;;12.50;27.37;99894.06;343988;28;1026;-69
2022/03/11 00:47:58;;;;;;;13.77;8.20;;;;;;;12.47;27.48;99896.75;343476;28;1780;-70
2022/03/11 00:48:10;;;;;;;12.93;8.27;;;;;;;12.50;27.69;99895.81;343111;28;2265;-70
2022/03/11 00:48:22;;;;;;;13.55;8.10;;;;;;;12.50;27.52;99893.22;343727;28;2285;-70
2022/03/11 00:48:34;;;;;;;13.70;8.18;;;;;;;12.50;27.53;99895.81;343814;28;1167;-70
2022/03/11 00:48:45;;;;;;;12.60;8.10;;;;;;;12.49;27.60;99902.75;343814;28;1074;-69
2022/03/11 00:48:58;;;;;;;12.70;7.90;;;;;;;12.48;27.69;99895.03;343674;28;1788;-70
2022/03/11 00:49:10;;;;;;;13.00;7.60;;;;;;;12.53;26.94;99900.91;343984;28;1090;-70
2022/03/11 00:49:22;;;;;;;12.77;7.78;;;;;;;12.54;27.77;99897.41;343789;28;1391;-70
2022/03/11 00:49:34;;;;;;;13.55;7.82;;;;;;;12.49;27.60;99894.09;343751;28;1817;-70
2022/03/11 00:49:46;;;;;;;12.77;7.53;;;;;;;12.51;27.57;99900.09;343758;28;1297;-69
2022/03/11 00:49:58;;;;;;;11.32;7.60;;;;;;;12.54;27.60;99900.00;343467;28;1283;-70
2022/03/11 00:50:13;;;;;;;12.20;8.15;;;;;;;12.55;27.64;99889.50;343639;28;1039;-70
2022/03/11 00:50:25;;;;;;;13.68;8.35;;;;;;;12.52;27.65;99894.84;343561;28;1352;-70
2022/03/11 00:50:37;;;;;;;12.50;7.60;;;;;;;12.46;27.69;99896.84;343764;28;1050;-70
2022/03/11 00:50:49;;;;;;;12.80;7.25;;;;;;;12.51;27.91;99897.50;343683;28;1113;-70
2022/03/11 00:51:01;;;;;;;12.70;7.45;;;;;;;12.54;27.83;99894.78;343811;28;1058;-70
2022/03/11 00:51:13;;;;;;;14.10;7.93;;;;;;;12.56;27.41;99895.59;343733;28;1373;-70
2022/03/11 00:51:25;;;;;;;14.20;7.95;;;;;;;12.58;27.10;99896.38;343321;28;1572;-70
2022/03/11 00:51:38;;;;;;;13.77;7.70;;;;;;;12.60;27.25;99891.97;343391;28;1283;-69
2022/03/11 00:51:50;;;;;;;13.85;7.85;;;;;;;12.60;27.19;99897.19;343741;28;1279;-70
2022/03/11 00:52:02;;;;;;;13.27;8.00;;;;;;;12.61;27.23;99898.84;341673;28;1833;-69
2022/03/11 00:52:14;;;;;;;12.77;8.25;;;;;;;12.62;27.08;99900.56;341993;28;1023;-70
2022/03/11 00:52:27;;;;;;;12.30;7.80;;;;;;;12.65;27.52;99890.00;342069;28;1023;-69
2022/03/11 00:52:41;;;;;;;13.07;7.68;;;;;;;12.70;27.48;99901.13;341999;28;1067;-70
2022/03/11 00:52:53;;;;;;;13.68;7.88;;;;;;;12.68;27.30;99892.53;341005;29;1086;-70
2022/03/11 00:53:05;;;;;;;12.82;7.88;;;;;;;12.68;27.38;99895.13;341179;29;937;-70
2022/03/11 00:53:17;;;;;;;12.40;7.90;;;;;;;12.68;27.30;99891.69;341012;29;1080;-70
2022/03/11 00:53:29;;;;;;;12.75;7.90;;;;;;;12.68;27.03;99895.13;341244;28;1895;-70
2022/03/11 00:53:41;;;;;;;12.07;7.57;;;;;;;12.70;27.58;99897.69;341772;28;1618;-70
2022/03/11 00:53:53;;;;;;;12.15;7.40;;;;;;;12.70;27.35;99893.31;342049;28;1115;-70
2022/03/11 00:54:05;;;;;;;13.65;7.85;;;;;;;12.69;27.20;99890.75;342290;28;1119;-70
2022/03/11 00:54:17;;;;;;;14.85;8.25;;;;;;;12.60;27.38;99891.97;342407;28;1155;-70
2022/03/11 00:54:30;;;;;;;15.07;8.55;;;;;;;12.64;27.60;99893.53;343161;28;1820;-70
2022/03/11 00:54:42;;;;;;;14.07;8.43;;;;;;;12.62;27.96;99895.34;343235;28;1758;-70
2022/03/11 00:54:54;;;;;;;13.77;8.35;;;;;;;12.64;27.65;99890.09;343493;28;1493;-70
2022/03/11 00:55:06;;;;;;;13.68;8.20;;;;;;;12.61;28.01;99888.44;342916;28;1777;-70
2022/03/11 00:55:19;;;;;;;14.07;8.00;;;;;;;12.52;28.04;99888.78;342967;28;1699;-70
2022/03/11 00:55:31;;;;;;;14.35;7.88;;;;;;;12.54;27.83;99887.81;343501;28;1044;-70
2022/03/11 00:55:43;;;;;;;13.35;8.10;;;;;;;12.56;27.85;99887.78;343482;28;1056;-70
2022/03/11 00:55:56;;;;;;;13.35;8.15;;;;;;;12.60;27.73;99884.13;342946;28;2255;-70
2022/03/11 00:56:08;;;;;;;13.88;7.93;;;;;;;12.59;28.05;99885.88;342872;28;1055;-70
2022/03/11 00:56:20;;;;;;;13.85;8.25;;;;;;;12.64;27.68;99887.50;342092;28;1021;-70
2022/03/11 00:56:32;;;;;;;12.10;7.95;;;;;;;12.60;27.85;99891.97;342139;28;1126;-70
2022/03/11 00:56:44;;;;;;;12.23;7.80;;;;;;;12.57;27.96;99892.91;343425;28;1716;-70
2022/03/11 00:56:56;;;;;;;12.10;7.95;;;;;;;12.59;27.87;99890.25;343690;28;1051;-70
2022/03/11 00:57:08;;;;;;;12.43;8.02;;;;;;;12.59;27.66;99890.25;343081;28;2056;-70
2022/03/11 00:57:20;;;;;;;13.10;8.30;;;;;;;12.60;27.59;99889.34;343648;28;1163;-70
2022/03/11 00:57:32;;;;;;;14.00;8.30;;;;;;;12.57;27.56;99886.84;342427;28;1209;-70
2022/03/11 00:57:44;;;;;;;15.32;8.50;;;;;;;12.61;27.38;99888.44;342348;28;1099;-70
2022/03/11 00:57:56;;;;;;;15.10;8.38;;;;;;;12.64;27.23;99893.53;342234;28;1083;-70
2022/03/11 00:58:08;;;;;;;12.90;7.95;;;;;;;12.65;27.93;99895.22;342349;28;1087;-70
2022/03/11 00:58:21;;;;;;;13.20;8.05;;;;;;;12.62;27.80;99890.16;342071;28;1200;-70
2022/03/11 00:58:33;;;;;;;13.40;8.27;;;;;;;12.65;27.28;99890.00;342122;28;1906;-69
2022/03/11 00:58:46;;;;;;;14.77;7.97;;;;;;;12.64;27.59;99885.72;342124;28;1929;-69
2022/03/11 00:58:58;;;;;;;14.07;7.88;;;;;;;12.57;27.54;99886.84;342976;28;1916;-69
2022/03/11 00:59:10;;;;;;;13.80;7.88;;;;;;;12.60;27.63;99884.13;343194;28;1138;-70
2022/03/11 00:59:22;;;;;;;13.07;8.10;;;;;;;12.59;27.46;99880.66;342132;28;1583;-70
2022/03/11 00:59:34;;;;;;;14.15;8.50;;;;;;;12.61;27.47;99882.38;342307;28;1075;-70